Camp Williams, Utah
Current Conditions -  °F | °C
As of 12:20 PM on Saturday 20 Dec 2014 (Local Time) from KSLC Reporting Station
Light Rain Light Rain  
Wind Chill: 34°   Ceiling: 2700
Heat Index: 41°   Visibility: 5mi
Dew Point: 35°   Wind: 12mph
Humidity: 79%   Direction: 270°W
Pressure: 30.1"   Gusts: NA
Location:  40.5353°N, 111.962°W
Report Text: KSLC 201920Z 27010KT 5SM -RA BKN027 OVC037 05/02 A3010 RMK AO2 P0000 T00500017
Loading
Personal Weather Stations






























Interactive Weather Map New forecast layout! Learn more

10-Day Weather Forecast

Advertisements
Track Severe Weather on mobile